Weather History for Indiana, PA

Change the Weather History Date:

Saturday, March 9, 2013

  Actual Average Record
Temperature  
Mean Temperature 37 °F -  
Max Temperature 53 °F 47 °F 75 °F (1974)
Min Temperature 21 °F 25 °F -10 °F (1960)
Degree Days  
Heating Degree Days 28    
Moisture  
Dew Point 25 °F    
Average Humidity 69    
Maximum Humidity 100    
Minimum Humidity 30    
Precipitation  
Precipitation 0.00 in - - ()
Sea Level Pressure  
Sea Level Pressure 30.29 in    
Wind  
Wind Speed 1 mph (SE)    
Max Wind Speed 12 mph    
Max Gust Speed -    
Visibility 10 miles    
Events      
Averages and records for this station are not official NWS values.
T = Trace of Precipitation, MM = Missing Value Source: NWS Daily Summary

Daily Weather History Graph

Daily Weather History Graph

Search for Another Location

Airport:

Trip Planner

Search our weather history database for the weather conditions in past years. The results will help you decide how hot, cold, wet, or windy it might be!

Date:

Astronomy

Mar. 09, 2013 Rise Set
Actual Time 6:37 AM EST 6:16 PM EST
Civil Twilight 6:10 AM EST 6:44 PM EST
Nautical Twilight 5:38 AM EST 7:15 PM EST
Astronomical Twilight 5:06 AM EST 7:47 PM EST
Moon 5:00 AM EST (3/9) 4:16 PM EST (3/9)
Length of Visible Light 12h 34m
Length of Day
11h 39m
Waning Crescent, 5% of the Moon is Illuminated
Mar 9
Waning Crescent
Mar 11
New
Mar 19
First Quarter
Mar 27
Full
Apr 3
Last Quarter

Hourly Weather History & Observations

Time (EST) Temp. Windchill Dew Point Humidity Pressure Visibility Wind Dir Wind Speed Gust Speed Precip Events Conditions
12:15 AM 26.6 °F - 26.6 °F 100% 30.36 in 10.0 mi Calm Calm - N/A   Unknown
12:35 AM 26.6 °F - 26.6 °F 100% 30.36 in 10.0 mi Calm Calm - N/A   Unknown
12:55 AM 24.8 °F - 24.8 °F 100% 30.37 in 10.0 mi Calm Calm - N/A   Unknown
1:15 AM 24.8 °F - 24.8 °F 100% 30.37 in 10.0 mi Calm Calm - N/A   Unknown
1:35 AM 24.8 °F - 24.8 °F 100% 30.37 in 10.0 mi Calm Calm - N/A   Unknown
1:55 AM 24.8 °F - 24.8 °F 100% 30.37 in 10.0 mi Calm Calm - N/A   Unknown
2:15 AM 24.8 °F - 24.8 °F 100% 30.36 in 10.0 mi Calm Calm - N/A   Unknown
2:35 AM 23.0 °F - 23.0 °F 100% 30.34 in 10.0 mi Calm Calm - N/A   Unknown
2:55 AM 24.8 °F - 24.8 °F 100% 30.33 in 10.0 mi Calm Calm - N/A   Unknown
3:15 AM 23.0 °F - 23.0 °F 100% 30.33 in 10.0 mi Calm Calm - N/A   Unknown
3:35 AM 23.0 °F - 23.0 °F 100% 30.33 in 7.0 mi Calm Calm - N/A   Unknown
3:55 AM 21.2 °F - 21.2 °F 100% 30.32 in 10.0 mi Calm Calm - N/A   Unknown
4:15 AM 21.2 °F - 21.2 °F 100% 30.32 in 10.0 mi Calm Calm - N/A   Unknown
4:35 AM 23.0 °F - 23.0 °F 100% 30.34 in 10.0 mi Calm Calm - N/A   Unknown
4:55 AM 21.2 °F - 21.2 °F 100% 30.34 in 10.0 mi Calm Calm - N/A   Unknown
5:15 AM 21.2 °F - 21.2 °F 100% 30.34 in 10.0 mi Calm Calm - N/A   Unknown
5:35 AM 21.2 °F - 21.2 °F 100% 30.33 in 10.0 mi Calm Calm - N/A   Unknown
5:55 AM 21.2 °F - 21.2 °F 100% 30.32 in 10.0 mi Calm Calm - N/A   Unknown
6:15 AM 21.2 °F - 21.2 °F 100% 30.33 in 10.0 mi Calm Calm - N/A   Unknown
6:35 AM 21.2 °F - 21.2 °F 100% 30.34 in 10.0 mi Calm Calm - N/A   Unknown
6:55 AM 21.2 °F - 21.2 °F 100% 30.35 in 10.0 mi Calm Calm - N/A   Unknown
7:15 AM 21.2 °F - 21.2 °F 100% 30.35 in 10.0 mi Calm Calm - N/A   Unknown
7:35 AM 23.0 °F - 23.0 °F 100% 30.36 in 10.0 mi Calm Calm - N/A   Unknown
7:55 AM 24.8 °F - 24.8 °F 100% 30.36 in 10.0 mi Calm Calm - N/A   Unknown
8:15 AM 26.6 °F - 26.6 °F 100% 30.37 in 10.0 mi Calm Calm - N/A   Unknown
8:35 AM 28.4 °F - 28.4 °F 100% 30.37 in 10.0 mi Calm Calm - N/A   Unknown
8:55 AM 30.2 °F - 28.4 °F 93% 30.37 in 10.0 mi Calm Calm - N/A   Unknown
9:15 AM 32.0 °F - 30.2 °F 93% 30.37 in 10.0 mi Calm Calm - N/A   Unknown
9:35 AM 33.8 °F - 28.4 °F 81% 30.36 in 10.0 mi Calm Calm - N/A   Unknown
9:55 AM 35.6 °F 31.7 °F 28.4 °F 75% 30.36 in 10.0 mi East 4.6 mph - N/A   Unknown
10:15 AM 37.4 °F 34.9 °F 28.4 °F 70% 30.35 in 10.0 mi East 3.5 mph - N/A   Unknown
10:35 AM 37.4 °F 33.8 °F 28.4 °F 70% 30.34 in 10.0 mi SE 4.6 mph - N/A   Unknown
10:55 AM 39.2 °F - 28.4 °F 65% 30.34 in 10.0 mi Calm Calm - N/A   Unknown
11:15 AM 42.8 °F - 30.2 °F 61% 30.34 in 10.0 mi Calm Calm - N/A   Unknown
11:35 AM 42.8 °F - 28.4 °F 57% 30.33 in 10.0 mi Calm Calm - N/A   Unknown
11:55 AM 44.6 °F - 28.4 °F 53% 30.32 in 10.0 mi Calm Calm - N/A   Unknown
12:15 PM 44.6 °F - 28.4 °F 53% 30.32 in 10.0 mi Calm Calm - N/A   Unknown
12:35 PM 46.4 °F - 28.4 °F 50% 30.31 in 10.0 mi Calm Calm - N/A   Unknown
12:55 PM 48.2 °F - 28.4 °F 46% 30.30 in 10.0 mi Calm Calm - N/A   Unknown
1:15 PM 48.2 °F - 30.2 °F 50% 30.30 in 10.0 mi Calm Calm - N/A   Unknown
1:35 PM 50.0 °F - 30.2 °F 47% 30.29 in 10.0 mi Calm Calm - N/A   Unknown
1:55 PM 50.0 °F - 30.2 °F 47% 30.28 in 10.0 mi Calm Calm - N/A   Unknown
2:15 PM 50.0 °F - 28.4 °F 43% 30.27 in 10.0 mi Calm Calm - N/A   Unknown
2:35 PM 51.8 °F - 28.4 °F 41% 30.26 in 10.0 mi Calm Calm - N/A   Unknown
2:55 PM 51.8 °F - 26.6 °F 38% 30.26 in 10.0 mi Calm Calm - N/A   Unknown
3:15 PM 53.6 °F - 26.6 °F 35% 30.25 in 10.0 mi Calm Calm - N/A   Unknown
3:35 PM 53.6 °F - 24.8 °F 33% 30.25 in 10.0 mi Calm Calm - N/A   Unknown
3:55 PM 53.6 °F - 26.6 °F 35% 30.24 in 10.0 mi Calm Calm - N/A   Unknown
4:15 PM 53.6 °F - 26.6 °F 35% 30.24 in 10.0 mi SSE 4.6 mph - N/A   Unknown
4:35 PM 53.6 °F - 24.8 °F 33% 30.24 in 10.0 mi Calm Calm - N/A   Unknown
4:55 PM 53.6 °F - 26.6 °F 35% 30.23 in 10.0 mi Calm Calm - N/A   Unknown
5:15 PM 53.6 °F - 24.8 °F 33% 30.22 in 10.0 mi Calm Calm - N/A   Unknown
5:35 PM 53.6 °F - 24.8 °F 33% 30.23 in 10.0 mi South 3.5 mph - N/A   Unknown
5:55 PM 51.8 °F - 26.6 °F 38% 30.23 in 10.0 mi South 3.5 mph - N/A   Unknown
6:15 PM 51.8 °F - 21.2 °F 30% 30.23 in 10.0 mi Calm Calm - N/A   Unknown
6:35 PM 48.2 °F - 26.6 °F 43% 30.23 in 10.0 mi Calm Calm - N/A   Unknown
6:55 PM 44.6 °F - 28.4 °F 53% 30.23 in 10.0 mi Calm Calm - N/A   Unknown
7:15 PM 41.0 °F - 28.4 °F 61% 30.23 in 10.0 mi Calm Calm - N/A   Unknown
7:35 PM 39.2 °F 35.9 °F 28.4 °F 65% 30.23 in 10.0 mi ESE 4.6 mph - N/A   Unknown
7:55 PM 39.2 °F - 28.4 °F 65% 30.24 in 10.0 mi Calm Calm - N/A   Unknown
8:15 PM 37.4 °F 34.9 °F 26.6 °F 65% 30.23 in 10.0 mi ESE 3.5 mph - N/A   Unknown
8:35 PM 37.4 °F 34.9 °F 26.6 °F 65% 30.22 in 10.0 mi East 3.5 mph - N/A   Unknown
8:55 PM 35.6 °F 31.7 °F 28.4 °F 75% 30.22 in 10.0 mi ESE 4.6 mph - N/A   Unknown
9:15 PM 37.4 °F 33.8 °F 26.6 °F 65% 30.22 in 10.0 mi ESE 4.6 mph - N/A   Unknown
9:35 PM 39.2 °F - 26.6 °F 61% 30.22 in 10.0 mi Calm Calm - N/A   Unknown
9:55 PM 37.4 °F 34.9 °F 26.6 °F 65% 30.22 in 10.0 mi SSE 3.5 mph - N/A   Unknown
10:15 PM 44.6 °F 40.7 °F 23.0 °F 43% 30.22 in 10.0 mi SSE 6.9 mph - N/A   Unknown
10:35 PM 44.6 °F 40.2 °F 19.4 °F 37% 30.22 in 10.0 mi SSE 8.1 mph - N/A   Unknown
10:55 PM 44.6 °F 40.2 °F 19.4 °F 37% 30.21 in 10.0 mi SSE 8.1 mph - N/A   Unknown
11:15 PM 46.4 °F 41.1 °F 19.4 °F 34% 30.21 in 10.0 mi South 11.5 mph - N/A   Unknown
11:35 PM 44.6 °F 39.2 °F 21.2 °F 39% 30.20 in 10.0 mi South 10.4 mph - N/A   Unknown
11:55 PM 44.6 °F 38.8 °F 21.2 °F 39% 30.20 in 10.0 mi SSE 11.5 mph - N/A   Unknown